Time;durP1;ratioP1;P1;durP2;ratioP2;P2;SDS_P1;SDS_P2;PMS_P1;PMS_P2;Temp;Humidity;BMP_temperature;BMP_pressure;BME280_temperature;BME280_humidity;BME280_pressure;Samples;Min_cycle;Max_cycle;Signal;HPM_P1;HPM_P2
2021/03/12 00:00:31;;;;;;;0.77;0.40;;;;;;;;;;5056603;28;20057;-86
2021/03/12 00:02:58;;;;;;;1.13;0.45;;;;;;;;;;5053373;28;20413;-86
2021/03/12 00:05:24;;;;;;;0.22;0.20;;;;;;;;;;5039458;28;20060;-88
2021/03/12 00:07:53;;;;;;;1.60;0.30;;;;;;;;;;5056706;28;20048;-88
2021/03/12 00:10:20;;;;;;;0.85;0.40;;;;;;;;;;5038396;28;20049;-87
2021/03/12 00:12:46;;;;;;;0.98;0.40;;;;;;;;;;5039912;28;20053;-87
2021/03/12 00:15:14;;;;;;;0.50;0.10;;;;;;;;;;5056566;28;20055;-88
2021/03/12 00:17:40;;;;;;;0.90;0.22;;;;;;;;;;5056959;28;20488;-87
2021/03/12 00:20:10;;;;;;;0.63;0.40;;;;;;;;;;5048136;28;20057;-87
2021/03/12 00:22:36;;;;;;;2.38;0.77;;;;;;;;;;5038217;28;20072;-85
2021/03/12 00:25:02;;;;;;;2.63;0.20;;;;;;;;;;5052060;28;20094;-87
2021/03/12 00:27:29;;;;;;;0.95;0.47;;;;;;;;;;5077357;28;20053;-87
2021/03/12 00:29:55;;;;;;;0.75;0.40;;;;;;;;;;5057512;28;20079;-87
2021/03/12 00:32:21;;;;;;;0.40;0.30;;;;;;;;;;5055581;28;20048;-87
2021/03/12 00:34:47;;;;;;;1.25;0.30;;;;;;;;;;5055834;28;20234;-87
2021/03/12 00:37:13;;;;;;;0.43;0.17;;;;;;;;;;5065684;28;20056;-87
2021/03/12 00:39:39;;;;;;;0.80;0.30;;;;;;;;;;5070928;28;20041;-87
2021/03/12 00:42:07;;;;;;;1.60;0.90;;;;;;;;;;5056553;28;20136;-86
2021/03/12 00:44:34;;;;;;;0.28;0.17;;;;;;;;;;5025862;28;20055;-87
2021/03/12 00:47:00;;;;;;;1.85;0.40;;;;;;;;;;5042574;28;20055;-87
2021/03/12 00:49:26;;;;;;;0.47;0.15;;;;;;;;;;5076608;28;20052;-86
2021/03/12 00:51:52;;;;;;;2.67;0.22;;;;;;;;;;5058303;28;20054;-85
2021/03/12 00:54:20;;;;;;;1.02;0.25;;;;;;;;;;5042227;28;20562;-85
2021/03/12 00:56:46;;;;;;;0.88;0.30;;;;;;;;;;5048676;28;20072;-86
2021/03/12 00:59:12;;;;;;;0.85;0.30;;;;;;;;;;5036216;28;20452;-86
2021/03/12 01:01:38;;;;;;;1.15;0.20;;;;;;;;;;5019281;28;20049;-86
2021/03/12 01:04:05;;;;;;;0.85;0.20;;;;;;;;;;5036477;28;20413;-84
2021/03/12 01:06:31;;;;;;;0.65;0.25;;;;;;;;;;5003034;28;20052;-86
2021/03/12 01:08:57;;;;;;;0.70;0.22;;;;;;;;;;5037749;28;20801;-85
2021/03/12 01:11:24;;;;;;;0.98;0.40;;;;;;;;;;5037832;28;20059;-86
2021/03/12 01:13:50;;;;;;;0.38;0.10;;;;;;;;;;5051883;28;20045;-86
2021/03/12 01:16:17;;;;;;;1.60;0.40;;;;;;;;;;5039816;28;20044;-86
2021/03/12 01:18:43;;;;;;;0.57;0.40;;;;;;;;;;5054708;28;20042;-86
2021/03/12 01:21:09;;;;;;;1.30;0.20;;;;;;;;;;5056122;28;20041;-86
2021/03/12 01:23:35;;;;;;;2.92;0.30;;;;;;;;;;5037605;28;20497;-86
2021/03/12 01:26:02;;;;;;;1.38;0.10;;;;;;;;;;5038063;28;20124;-86
2021/03/12 01:28:29;;;;;;;2.88;0.40;;;;;;;;;;5054988;28;20045;-87
2021/03/12 01:30:55;;;;;;;0.30;0.17;;;;;;;;;;5021275;28;20049;-86
2021/03/12 01:33:21;;;;;;;0.80;0.32;;;;;;;;;;5035886;28;20098;-86
2021/03/12 01:35:47;;;;;;;1.55;0.28;;;;;;;;;;5035545;28;20053;-85
2021/03/12 01:38:13;;;;;;;0.73;0.22;;;;;;;;;;5034696;28;20736;-87
2021/03/12 01:40:43;;;;;;;0.93;0.35;;;;;;;;;;5019971;28;20072;-86
2021/03/12 01:43:09;;;;;;;2.67;0.22;;;;;;;;;;5025168;28;20489;-86
2021/03/12 01:45:39;;;;;;;2.72;0.35;;;;;;;;;;5044529;28;20500;-88
2021/03/12 01:48:08;;;;;;;1.02;0.30;;;;;;;;;;5053796;28;20053;-86
2021/03/12 01:50:35;;;;;;;0.50;0.20;;;;;;;;;;5020175;28;20057;-88
2021/03/12 01:53:01;;;;;;;2.20;0.40;;;;;;;;;;5053983;28;20045;-88
2021/03/12 01:55:30;;;;;;;1.05;0.40;;;;;;;;;;5054746;28;20071;-87
2021/03/12 01:57:56;;;;;;;1.35;0.30;;;;;;;;;;5034672;28;20148;-86
2021/03/12 02:00:22;;;;;;;0.77;0.20;;;;;;;;;;5051080;28;20052;-86
2021/03/12 02:02:49;;;;;;;0.57;0.20;;;;;;;;;;5014225;23;20047;-87
2021/03/12 02:05:16;;;;;;;2.70;0.60;;;;;;;;;;4986737;28;20054;-88
2021/03/12 02:07:43;;;;;;;0.30;0.22;;;;;;;;;;5014487;28;20049;-87
2021/03/12 02:10:15;;;;;;;1.77;0.38;;;;;;;;;;5014694;28;20049;-88
2021/03/12 02:12:47;;;;;;;1.38;0.35;;;;;;;;;;4999532;28;20046;-87
2021/03/12 02:15:16;;;;;;;1.02;0.50;;;;;;;;;;4997622;28;20053;-88
2021/03/12 02:17:48;;;;;;;0.63;0.20;;;;;;;;;;4997039;28;20050;-87
2021/03/12 02:20:32;;;;;;;0.93;0.20;;;;;;;;;;4982493;28;20057;-87
2021/03/12 02:23:11;;;;;;;1.58;0.30;;;;;;;;;;4995345;28;20108;-86
2021/03/12 02:25:39;;;;;;;0.88;0.40;;;;;;;;;;4977888;28;20061;-87
2021/03/12 02:28:06;;;;;;;1.00;0.63;;;;;;;;;;4978062;28;20106;-88
2021/03/12 02:30:33;;;;;;;0.93;0.43;;;;;;;;;;4995471;28;20449;-88
2021/03/12 02:32:59;;;;;;;1.08;0.22;;;;;;;;;;4994633;28;20057;-88
2021/03/12 02:35:26;;;;;;;3.03;0.35;;;;;;;;;;4995047;28;20062;-88
2021/03/12 02:37:53;;;;;;;1.25;0.32;;;;;;;;;;4961654;28;20046;-89
2021/03/12 02:40:19;;;;;;;0.80;0.20;;;;;;;;;;4962866;28;20065;-89
2021/03/12 02:42:46;;;;;;;1.13;0.30;;;;;;;;;;4969250;28;20051;-88
2021/03/12 02:45:17;;;;;;;2.92;0.55;;;;;;;;;;4964021;28;20121;-89
2021/03/12 02:47:43;;;;;;;1.30;0.38;;;;;;;;;;4974556;28;20051;-89
2021/03/12 02:50:12;;;;;;;2.17;0.38;;;;;;;;;;4974968;28;20054;-90
2021/03/12 02:52:39;;;;;;;1.75;0.30;;;;;;;;;;4957270;28;20050;-90
2021/03/12 02:55:06;;;;;;;1.33;0.45;;;;;;;;;;4961671;28;20051;-89
2021/03/12 02:57:33;;;;;;;1.42;0.35;;;;;;;;;;4960952;28;20050;-89
2021/03/12 02:59:59;;;;;;;1.88;0.30;;;;;;;;;;4974887;28;20096;-89
2021/03/12 03:02:27;;;;;;;2.25;0.40;;;;;;;;;;5017564;28;20482;-89
2021/03/12 03:04:55;;;;;;;1.67;0.30;;;;;;;;;;5017440;28;20046;-89
2021/03/12 03:07:21;;;;;;;3.90;0.73;;;;;;;;;;4991904;28;20101;-88
2021/03/12 03:09:49;;;;;;;1.65;0.30;;;;;;;;;;4980734;28;20751;-89
2021/03/12 03:12:18;;;;;;;5.38;0.57;;;;;;;;;;4997988;28;20125;-88
2021/03/12 03:14:45;;;;;;;1.73;0.40;;;;;;;;;;4998010;28;20057;-88
2021/03/12 03:17:12;;;;;;;1.05;0.43;;;;;;;;;;4998396;28;20085;-88
2021/03/12 03:19:41;;;;;;;1.00;0.38;;;;;;;;;;4967927;28;20054;-89
2021/03/12 03:22:08;;;;;;;1.17;0.30;;;;;;;;;;4997781;28;20058;-89
2021/03/12 03:24:34;;;;;;;2.47;0.98;;;;;;;;;;4981102;28;20457;-90
2021/03/12 03:27:00;;;;;;;2.85;0.50;;;;;;;;;;4980444;28;20058;-89
2021/03/12 03:29:26;;;;;;;1.30;0.50;;;;;;;;;;4998038;28;20050;-88
2021/03/12 03:31:53;;;;;;;2.17;0.68;;;;;;;;;;4986460;28;20558;-88
2021/03/12 03:34:19;;;;;;;2.05;0.45;;;;;;;;;;4997848;28;20479;-89
2021/03/12 03:36:45;;;;;;;3.78;0.50;;;;;;;;;;4997810;28;20046;-89
2021/03/12 03:39:12;;;;;;;0.65;0.30;;;;;;;;;;4997364;28;20047;-89
2021/03/12 03:41:40;;;;;;;5.03;1.65;;;;;;;;;;4997400;28;20049;-89
2021/03/12 03:44:07;;;;;;;4.05;0.52;;;;;;;;;;4980155;28;20137;-89
2021/03/12 03:46:36;;;;;;;1.77;1.15;;;;;;;;;;4980725;28;20082;-89
2021/03/12 03:49:03;;;;;;;2.42;0.60;;;;;;;;;;4997901;28;20108;-89
2021/03/12 03:51:29;;;;;;;0.95;0.40;;;;;;;;;;4980442;28;20050;-89
2021/03/12 03:53:56;;;;;;;2.20;0.60;;;;;;;;;;4997217;28;20050;-89
2021/03/12 03:56:22;;;;;;;3.58;0.90;;;;;;;;;;4997425;28;20064;-89
2021/03/12 03:58:49;;;;;;;0.90;0.63;;;;;;;;;;4979926;28;20050;-88
2021/03/12 04:01:15;;;;;;;3.20;1.13;;;;;;;;;;4996801;28;20065;-88
2021/03/12 04:03:42;;;;;;;0.68;0.20;;;;;;;;;;5002557;28;20457;-88
2021/03/12 04:06:08;;;;;;;0.73;0.40;;;;;;;;;;5015253;28;20061;-88
2021/03/12 04:08:35;;;;;;;0.63;0.32;;;;;;;;;;5016525;28;20155;-88
2021/03/12 04:11:03;;;;;;;3.90;0.43;;;;;;;;;;4983314;28;20053;-89
2021/03/12 04:13:29;;;;;;;1.50;0.50;;;;;;;;;;4964247;28;20050;-89
2021/03/12 04:15:56;;;;;;;2.95;0.65;;;;;;;;;;4963560;28;20506;-89
2021/03/12 04:18:22;;;;;;;2.47;0.50;;;;;;;;;;4997028;28;20046;-88
2021/03/12 04:20:49;;;;;;;2.33;0.47;;;;;;;;;;4996385;28;20512;-88
2021/03/12 04:23:16;;;;;;;1.90;0.40;;;;;;;;;;4963157;28;20046;-88
2021/03/12 04:25:43;;;;;;;2.33;0.63;;;;;;;;;;4996459;28;20486;-88
2021/03/12 04:28:10;;;;;;;1.27;0.40;;;;;;;;;;4978876;28;20105;-89
2021/03/12 04:30:36;;;;;;;2.22;0.47;;;;;;;;;;4978789;28;20054;-89
2021/03/12 04:33:03;;;;;;;2.33;0.77;;;;;;;;;;4996471;28;20058;-88
2021/03/12 04:35:30;;;;;;;0.95;0.32;;;;;;;;;;4979432;28;20046;-88
2021/03/12 04:37:56;;;;;;;1.10;0.50;;;;;;;;;;4996306;28;20046;-89
2021/03/12 04:40:22;;;;;;;1.75;0.60;;;;;;;;;;4984459;28;20046;-89
2021/03/12 04:42:49;;;;;;;2.83;0.50;;;;;;;;;;4971964;28;20491;-88
2021/03/12 04:45:18;;;;;;;2.40;0.65;;;;;;;;;;4976528;28;20061;-88
2021/03/12 04:47:44;;;;;;;1.80;0.40;;;;;;;;;;5014974;28;20037;-89
2021/03/12 04:50:11;;;;;;;0.57;0.38;;;;;;;;;;4971042;28;20415;-88
2021/03/12 04:52:38;;;;;;;9.10;0.80;;;;;;;;;;4996729;28;20051;-90
2021/03/12 04:55:05;;;;;;;1.48;0.40;;;;;;;;;;4979798;28;20050;-89
2021/03/12 04:57:32;;;;;;;1.65;0.40;;;;;;;;;;4996049;28;20054;-89
2021/03/12 04:59:58;;;;;;;1.77;0.57;;;;;;;;;;4963193;28;20108;-89
2021/03/12 05:02:25;;;;;;;2.58;0.60;;;;;;;;;;4979226;28;20050;-88
2021/03/12 05:04:52;;;;;;;1.40;0.52;;;;;;;;;;4979615;28;20054;-89
2021/03/12 05:07:19;;;;;;;1.65;1.02;;;;;;;;;;4995995;28;20415;-89
2021/03/12 05:09:45;;;;;;;2.65;0.65;;;;;;;;;;5000649;28;20054;-89
2021/03/12 05:12:13;;;;;;;1.65;0.60;;;;;;;;;;4984950;28;20108;-88
2021/03/12 05:14:39;;;;;;;2.63;0.68;;;;;;;;;;4978852;28;20491;-89
2021/03/12 05:17:05;;;;;;;2.58;0.80;;;;;;;;;;4978294;28;20487;-88
2021/03/12 05:19:32;;;;;;;2.17;0.60;;;;;;;;;;4978504;28;20498;-89
2021/03/12 05:22:00;;;;;;;2.47;0.50;;;;;;;;;;4962644;28;20121;-89
2021/03/12 05:24:26;;;;;;;3.35;0.57;;;;;;;;;;4970950;28;20046;-88
2021/03/12 05:26:53;;;;;;;0.88;0.43;;;;;;;;;;4985756;28;20085;-90
2021/03/12 05:29:19;;;;;;;2.55;0.50;;;;;;;;;;4986691;28;20567;-87
2021/03/12 05:31:45;;;;;;;3.22;0.73;;;;;;;;;;4979493;28;20498;-89
2021/03/12 05:34:11;;;;;;;1.63;0.60;;;;;;;;;;5006374;28;20062;-90
2021/03/12 05:36:38;;;;;;;2.40;0.47;;;;;;;;;;4980925;28;20065;-90
2021/03/12 05:39:07;;;;;;;3.25;0.68;;;;;;;;;;4964007;28;20046;-89
2021/03/12 05:41:36;;;;;;;2.80;0.63;;;;;;;;;;4996847;28;20219;-91
2021/03/12 05:44:03;;;;;;;1.48;0.93;;;;;;;;;;4996039;28;20105;-89
2021/03/12 05:46:30;;;;;;;4.05;0.90;;;;;;;;;;4995877;28;20086;-89
2021/03/12 05:48:57;;;;;;;1.20;0.40;;;;;;;;;;4977660;28;20047;-88
2021/03/12 05:51:24;;;;;;;3.08;0.85;;;;;;;;;;4978069;28;20054;-88
2021/03/12 05:53:51;;;;;;;4.70;1.20;;;;;;;;;;4977666;28;20108;-88
2021/03/12 05:56:17;;;;;;;4.97;1.10;;;;;;;;;;4995190;28;20042;-88
2021/03/12 05:58:43;;;;;;;2.90;1.13;;;;;;;;;;4984197;28;20552;-89
2021/03/12 06:04:31;;;;;;;3.60;1.17;;;;;;;;;;4983508;28;20509;-86
2021/03/12 06:07:15;;;;;;;;;;;;;;;;;;;;;
2021/03/12 07:00:27;;;;;;;;;;;;;;;;;;;;;
2021/03/12 07:25:10;;;;;;;;;;;;;;;;;;;;;
2021/03/12 07:57:43;;;;;;;;;;;;;;;;;;;;;
2021/03/12 09:14:53;;;;;;;2.13;0.90;;;;;;;;;;5663957;23;20054;-90
2021/03/12 09:17:21;;;;;;;3.00;0.88;;;;;;;;;;4971953;28;20187;-90
2021/03/12 09:19:49;;;;;;;3.25;0.98;;;;;;;;;;4988338;28;20046;-90
2021/03/12 09:22:23;;;;;;;3.95;0.85;;;;;;;;;;4963498;28;20514;-91
2021/03/12 09:24:53;;;;;;;5.07;0.80;;;;;;;;;;5014661;28;20089;-90
2021/03/12 09:27:25;;;;;;;4.13;1.10;;;;;;;;;;4978405;28;20058;-89
2021/03/12 09:29:58;;;;;;;3.80;1.00;;;;;;;;;;4990965;28;20645;-88
2021/03/12 09:32:37;;;;;;;4.13;1.20;;;;;;;;;;5003344;28;20050;-88
2021/03/12 09:35:15;;;;;;;3.75;0.60;;;;;;;;;;4998808;28;20058;-90
2021/03/12 09:37:43;;;;;;;2.53;0.88;;;;;;;;;;4962435;28;20068;-89
2021/03/12 11:05:18;;;;;;;;;;;;;;;;;;;;;
2021/03/12 11:08:26;;;;;;;;;;;;;;;;;;;;;
2021/03/12 11:31:37;;;;;;;;;;;;;;;;;;;;;
2021/03/12 11:45:41;;;;;;;;;;;;;;;;;;;;;
2021/03/12 12:04:32;;;;;;;1.65;0.70;;;;;;;;;;5460667;23;20054;-88
2021/03/12 12:07:00;;;;;;;1.58;0.57;;;;;;;;;;5000273;28;20054;-89
2021/03/12 12:09:26;;;;;;;3.20;0.63;;;;;;;;;;5017082;28;20065;-88
2021/03/12 12:11:54;;;;;;;2.00;0.70;;;;;;;;;;5012738;28;20093;-89
2021/03/12 12:14:21;;;;;;;4.18;1.00;;;;;;;;;;5047736;28;20100;-89
2021/03/12 12:16:48;;;;;;;3.20;0.40;;;;;;;;;;5069157;28;20113;-87
2021/03/12 12:19:16;;;;;;;5.40;0.65;;;;;;;;;;5037465;28;20065;-88
2021/03/12 12:21:43;;;;;;;3.10;0.77;;;;;;;;;;5023268;28;20065;-88
2021/03/12 12:24:10;;;;;;;2.03;0.60;;;;;;;;;;5002901;28;20058;-87
2021/03/12 12:26:36;;;;;;;3.58;0.77;;;;;;;;;;5020414;28;20078;-90
2021/03/12 12:29:06;;;;;;;3.97;0.90;;;;;;;;;;5002904;28;20056;-87
2021/03/12 12:31:33;;;;;;;4.68;1.23;;;;;;;;;;5023719;28;20125;-88
2021/03/12 12:33:59;;;;;;;3.38;0.70;;;;;;;;;;5022076;28;20049;-88
2021/03/12 12:36:26;;;;;;;4.10;0.98;;;;;;;;;;5022793;28;20073;-88
2021/03/12 12:38:54;;;;;;;2.72;0.73;;;;;;;;;;5019294;28;20469;-88
2021/03/12 12:41:20;;;;;;;2.28;0.60;;;;;;;;;;5024993;28;20521;-89
2021/03/12 12:43:47;;;;;;;3.85;0.75;;;;;;;;;;5020661;28;20099;-87
2021/03/12 12:46:13;;;;;;;3.53;0.73;;;;;;;;;;5016540;28;20053;-87
2021/03/12 12:48:40;;;;;;;2.78;0.75;;;;;;;;;;5017608;28;21043;-86
2021/03/12 12:51:06;;;;;;;4.30;0.98;;;;;;;;;;5022012;28;20057;-86
2021/03/12 12:53:32;;;;;;;3.65;0.93;;;;;;;;;;5010133;28;20517;-87
2021/03/12 12:55:59;;;;;;;3.92;0.70;;;;;;;;;;5018246;28;20410;-87
2021/03/12 12:58:35;;;;;;;1.85;0.57;;;;;;;;;;5013821;28;20128;-87
2021/03/12 13:01:32;;;;;;;;;;;;;;;;;;;;;
2021/03/12 13:04:10;;;;;;;;;;;;;;;;;;;;;
2021/03/12 13:07:00;;;;;;;;;;;;;;;;;;;;;
2021/03/12 13:15:55;;;;;;;2.72;0.57;;;;;;;;;;4997627;28;20105;-87
2021/03/12 13:21:52;;;;;;;3.50;0.93;;;;;;;;;;4885044;29;20052;-88
2021/03/12 13:25:01;;;;;;;3.17;0.75;;;;;;;;;;4952494;28;20054;-88
2021/03/12 13:27:35;;;;;;;3.85;0.93;;;;;;;;;;4995355;28;20058;-86
2021/03/12 13:30:01;;;;;;;5.05;1.45;;;;;;;;;;4996552;28;20047;-87
2021/03/12 13:32:27;;;;;;;2.53;0.50;;;;;;;;;;4999034;28;20066;-88
2021/03/12 13:34:54;;;;;;;1.65;0.50;;;;;;;;;;4986486;28;20483;-86
2021/03/12 13:37:20;;;;;;;3.22;1.02;;;;;;;;;;4993655;28;20050;-86
2021/03/12 13:39:46;;;;;;;2.88;0.90;;;;;;;;;;4995290;28;20046;-87
2021/03/12 13:42:12;;;;;;;3.90;0.77;;;;;;;;;;4997158;28;20112;-87
2021/03/12 13:44:39;;;;;;;2.95;0.77;;;;;;;;;;4996347;28;20073;-87
2021/03/12 13:47:05;;;;;;;4.53;1.02;;;;;;;;;;4979231;28;20430;-89
2021/03/12 13:49:32;;;;;;;3.40;1.08;;;;;;;;;;4995137;28;20058;-88
2021/03/12 13:51:58;;;;;;;3.33;0.88;;;;;;;;;;4995682;28;20046;-86
2021/03/12 13:54:25;;;;;;;3.58;0.95;;;;;;;;;;5008899;28;20426;-86
2021/03/12 13:56:51;;;;;;;2.85;0.98;;;;;;;;;;5001681;28;20483;-86
2021/03/12 13:59:17;;;;;;;3.17;0.77;;;;;;;;;;5006063;28;20061;-85
2021/03/12 14:01:44;;;;;;;5.72;1.00;;;;;;;;;;5004353;28;20058;-85
2021/03/12 14:04:10;;;;;;;3.40;0.70;;;;;;;;;;4992869;28;20062;-85
2021/03/12 14:06:38;;;;;;;1.90;0.68;;;;;;;;;;4991897;28;20046;-85
2021/03/12 14:09:08;;;;;;;4.45;1.02;;;;;;;;;;4998014;28;20058;-85
2021/03/12 14:11:35;;;;;;;4.00;1.20;;;;;;;;;;5002835;28;20046;-86
2021/03/12 14:14:01;;;;;;;4.38;1.02;;;;;;;;;;4997873;28;20054;-85
2021/03/12 14:16:27;;;;;;;3.45;0.75;;;;;;;;;;5017588;28;20050;-85
2021/03/12 14:18:56;;;;;;;1.20;0.57;;;;;;;;;;5002335;28;20132;-86
2021/03/12 14:21:22;;;;;;;3.30;1.05;;;;;;;;;;5001023;28;20080;-85
2021/03/12 14:23:48;;;;;;;2.00;0.70;;;;;;;;;;5004179;28;20038;-86
2021/03/12 14:26:14;;;;;;;5.03;1.23;;;;;;;;;;5002217;28;20062;-86
2021/03/12 14:28:40;;;;;;;1.38;0.63;;;;;;;;;;4993467;28;20757;-87
2021/03/12 14:31:06;;;;;;;1.95;0.60;;;;;;;;;;4995191;28;20058;-86
2021/03/12 14:33:34;;;;;;;2.50;0.60;;;;;;;;;;4997828;28;20052;-84
2021/03/12 14:36:01;;;;;;;2.60;0.77;;;;;;;;;;5014763;28;20085;-84
2021/03/12 14:38:27;;;;;;;3.72;1.13;;;;;;;;;;5013695;28;20050;-84
2021/03/12 14:40:53;;;;;;;3.20;0.70;;;;;;;;;;5014354;28;20054;-86
2021/03/12 14:43:19;;;;;;;2.03;0.85;;;;;;;;;;5002082;28;20046;-87
2021/03/12 14:45:46;;;;;;;7.97;1.00;;;;;;;;;;5007538;28;20042;-86
2021/03/12 14:48:12;;;;;;;2.70;1.15;;;;;;;;;;4996556;28;20050;-86
2021/03/12 14:50:38;;;;;;;3.15;0.98;;;;;;;;;;5017585;28;20453;-86
2021/03/12 14:53:05;;;;;;;1.40;0.60;;;;;;;;;;5008112;28;20053;-86
2021/03/12 14:55:31;;;;;;;3.20;0.93;;;;;;;;;;5010943;28;20490;-86
2021/03/12 14:57:57;;;;;;;2.28;0.82;;;;;;;;;;4999724;28;20063;-86
2021/03/12 15:00:24;;;;;;;1.50;0.52;;;;;;;;;;5001139;28;20214;-86
2021/03/12 15:02:51;;;;;;;1.58;0.60;;;;;;;;;;5005412;28;20637;-86
2021/03/12 15:05:17;;;;;;;3.65;0.60;;;;;;;;;;5017617;28;20116;-86
2021/03/12 15:07:44;;;;;;;3.58;1.63;;;;;;;;;;4989102;28;20122;-86
2021/03/12 15:10:12;;;;;;;3.58;0.65;;;;;;;;;;5003304;28;20054;-86
2021/03/12 15:12:38;;;;;;;1.63;0.70;;;;;;;;;;5016138;28;20046;-85
2021/03/12 15:15:06;;;;;;;3.30;0.70;;;;;;;;;;4999836;28;20054;-86
2021/03/12 15:17:32;;;;;;;1.42;0.60;;;;;;;;;;4994962;28;20051;-87
2021/03/12 15:19:58;;;;;;;4.35;1.10;;;;;;;;;;4982040;28;23309;-84
2021/03/12 15:22:24;;;;;;;2.25;1.20;;;;;;;;;;5010278;28;20058;-86
2021/03/12 15:24:50;;;;;;;2.95;1.00;;;;;;;;;;4999183;28;20054;-84
2021/03/12 15:27:17;;;;;;;2.90;0.80;;;;;;;;;;5000962;28;20057;-83
2021/03/12 15:29:44;;;;;;;3.67;1.00;;;;;;;;;;5006174;28;20045;-87
2021/03/12 15:32:10;;;;;;;4.05;0.65;;;;;;;;;;4992781;28;20046;-87
2021/03/12 15:34:36;;;;;;;3.63;0.70;;;;;;;;;;5004111;28;20050;-87
2021/03/12 15:37:03;;;;;;;2.45;1.23;;;;;;;;;;4988933;28;20512;-88
2021/03/12 15:39:29;;;;;;;3.72;1.25;;;;;;;;;;4999928;28;20484;-85
2021/03/12 15:41:56;;;;;;;3.05;0.85;;;;;;;;;;5004491;28;20056;-85
2021/03/12 15:44:24;;;;;;;2.95;1.50;;;;;;;;;;5008170;28;20482;-85
2021/03/12 15:46:54;;;;;;;6.18;1.52;;;;;;;;;;5002859;28;20470;-85
2021/03/12 15:49:42;;;;;;;4.78;1.17;;;;;;;;;;4997263;28;20057;-86
2021/03/12 15:52:10;;;;;;;4.13;1.05;;;;;;;;;;5014823;28;20538;-85
2021/03/12 15:57:55;;;;;;;2.97;1.75;;;;;;;;;;5342444;22;20064;-86
2021/03/12 16:00:56;;;;;;;;;;;;;;;;;;;;;
2021/03/12 16:03:46;;;;;;;4.47;1.08;;;;;;;;;;4960983;28;20254;-85
2021/03/12 16:06:40;;;;;;;;;;;;;;;;;;;;;
2021/03/12 16:09:26;;;;;;;4.78;1.20;;;;;;;;;;4980378;28;20057;-87
2021/03/12 16:12:05;;;;;;;3.72;0.98;;;;;;;;;;4983263;28;20064;-86
2021/03/12 16:14:35;;;;;;;3.00;1.10;;;;;;;;;;4972004;28;20081;-85
2021/03/12 16:17:28;;;;;;;2.83;1.00;;;;;;;;;;4953428;28;20090;-85
2021/03/12 16:23:02;;;;;;;4.00;1.00;;;;;;;;;;4975325;28;20054;-85
2021/03/12 16:25:42;;;;;;;;;;;;;;;;;;;;;
2021/03/12 16:28:16;;;;;;;4.30;0.70;;;;;;;;;;5012371;28;20057;-87
2021/03/12 16:30:56;;;;;;;4.20;1.20;;;;;;;;;;5023185;28;20053;-86
2021/03/12 16:34:16;;;;;;;;;;;;;;;;;;;;;
2021/03/12 17:11:34;;;;;;;;;;;;;;;;;;;;;
2021/03/12 17:14:40;;;;;;;7.03;1.65;;;;;;;;;;4928440;29;20047;-85
2021/03/12 17:42:54;;;;;;;6.80;2.05;;;;;;;;;;4956443;28;20170;-85
2021/03/12 17:45:30;;;;;;;;;;;;;;;;;;;;;
2021/03/12 17:47:59;;;;;;;5.40;1.80;;;;;;;;;;4956989;28;20150;-86
2021/03/12 17:50:30;;;;;;;4.57;2.38;;;;;;;;;;4976577;28;20201;-83
2021/03/12 17:53:08;;;;;;;;;;;;;;;;;;;;;
2021/03/12 17:55:47;;;;;;;4.18;1.92;;;;;;;;;;4962086;28;20054;-84
2021/03/12 17:58:28;;;;;;;6.50;2.85;;;;;;;;;;4976439;28;20073;-84
2021/03/12 18:01:01;;;;;;;4.72;2.45;;;;;;;;;;4995795;28;20042;-82
2021/03/12 18:03:28;;;;;;;8.43;2.42;;;;;;;;;;5029056;28;20052;-82
2021/03/12 18:05:59;;;;;;;7.10;2.70;;;;;;;;;;5037703;28;20063;-82
2021/03/12 18:08:39;;;;;;;5.68;1.90;;;;;;;;;;5027235;28;20073;-82
2021/03/12 18:11:05;;;;;;;4.60;2.15;;;;;;;;;;5018952;28;20053;-82
2021/03/12 18:13:31;;;;;;;5.75;2.10;;;;;;;;;;5028361;28;20173;-82
2021/03/12 18:15:59;;;;;;;5.28;1.15;;;;;;;;;;5025736;28;20045;-83
2021/03/12 18:18:27;;;;;;;2.83;1.73;;;;;;;;;;5019661;28;21754;-81
2021/03/12 18:21:10;;;;;;;4.72;1.45;;;;;;;;;;5032288;28;20056;-85
2021/03/12 18:24:04;;;;;;;2.63;1.50;;;;;;;;;;5015716;28;20048;-85
2021/03/12 18:26:34;;;;;;;2.75;1.33;;;;;;;;;;5028128;28;20081;-84
2021/03/12 18:29:22;;;;;;;2.95;1.30;;;;;;;;;;5028594;28;20046;-85
2021/03/12 18:31:50;;;;;;;3.35;1.33;;;;;;;;;;4997168;28;20131;-85
2021/03/12 18:34:17;;;;;;;2.60;0.82;;;;;;;;;;5007339;28;20486;-84
2021/03/12 18:36:56;;;;;;;2.60;0.90;;;;;;;;;;5019369;28;20049;-84
2021/03/12 18:39:24;;;;;;;2.00;0.70;;;;;;;;;;5025953;28;20060;-83
2021/03/12 18:41:56;;;;;;;5.07;1.85;;;;;;;;;;5012318;28;20037;-82
2021/03/12 18:44:22;;;;;;;7.13;4.20;;;;;;;;;;5031654;28;20042;-82
2021/03/12 18:46:48;;;;;;;10.50;7.35;;;;;;;;;;5016799;28;20046;-82
2021/03/12 18:49:15;;;;;;;9.77;4.90;;;;;;;;;;5032395;28;20076;-82
2021/03/12 18:51:42;;;;;;;4.18;1.95;;;;;;;;;;5020064;28;20542;-81
2021/03/12 18:54:08;;;;;;;5.15;1.80;;;;;;;;;;5017861;28;20054;-83
2021/03/12 18:56:34;;;;;;;7.82;4.25;;;;;;;;;;5034487;28;20056;-81
2021/03/12 18:59:00;;;;;;;9.20;3.97;;;;;;;;;;5020099;28;20101;-84
2021/03/12 19:01:27;;;;;;;4.63;2.30;;;;;;;;;;5028911;28;20046;-85
2021/03/12 19:03:53;;;;;;;6.13;3.38;;;;;;;;;;5020765;28;20057;-83
2021/03/12 19:06:19;;;;;;;9.02;5.50;;;;;;;;;;5019959;28;20084;-83
2021/03/12 19:08:46;;;;;;;7.88;2.85;;;;;;;;;;5025522;28;20489;-84
2021/03/12 19:11:13;;;;;;;8.93;4.97;;;;;;;;;;5008421;28;20104;-84
2021/03/12 19:13:39;;;;;;;6.60;3.47;;;;;;;;;;5029799;28;20046;-83
2021/03/12 19:16:06;;;;;;;4.88;3.13;;;;;;;;;;5039216;28;20072;-85
2021/03/12 19:18:32;;;;;;;5.85;2.42;;;;;;;;;;5020280;28;20056;-84
2021/03/12 19:20:59;;;;;;;5.13;1.38;;;;;;;;;;5020954;28;20037;-84
2021/03/12 19:23:25;;;;;;;2.30;1.50;;;;;;;;;;5037861;28;20053;-83
2021/03/12 19:25:51;;;;;;;4.95;1.13;;;;;;;;;;5028969;28;20045;-83
2021/03/12 19:28:18;;;;;;;1.65;0.93;;;;;;;;;;5029796;28;20042;-83
2021/03/12 19:30:44;;;;;;;5.20;1.60;;;;;;;;;;5022817;28;20413;-82
2021/03/12 19:33:10;;;;;;;4.32;1.48;;;;;;;;;;5031730;28;20076;-83
2021/03/12 19:35:36;;;;;;;4.22;1.73;;;;;;;;;;5019740;28;20053;-83
2021/03/12 19:38:02;;;;;;;2.10;1.02;;;;;;;;;;5028999;28;20051;-81
2021/03/12 19:40:28;;;;;;;3.20;1.55;;;;;;;;;;5037121;28;20077;-84
2021/03/12 19:42:54;;;;;;;5.38;2.05;;;;;;;;;;5053762;28;20490;-82
2021/03/12 19:45:23;;;;;;;6.07;2.22;;;;;;;;;;5038836;28;20046;-84
2021/03/12 19:47:50;;;;;;;8.85;3.00;;;;;;;;;;5053429;28;20113;-82
2021/03/12 19:50:16;;;;;;;4.18;1.90;;;;;;;;;;5025795;28;20091;-82
2021/03/12 19:52:42;;;;;;;3.38;1.10;;;;;;;;;;5028238;28;20427;-83
2021/03/12 19:55:09;;;;;;;7.18;1.88;;;;;;;;;;5021481;28;20049;-82
2021/03/12 19:57:35;;;;;;;7.22;1.38;;;;;;;;;;5038191;28;20041;-84
2021/03/12 20:00:02;;;;;;;6.63;1.50;;;;;;;;;;5041018;28;20065;-83
2021/03/12 20:02:29;;;;;;;3.90;1.30;;;;;;;;;;5037878;28;20049;-84
2021/03/12 20:05:04;;;;;;;6.90;1.20;;;;;;;;;;5026331;28;20049;-83
2021/03/12 20:07:30;;;;;;;3.65;1.30;;;;;;;;;;5018273;28;20058;-84
2021/03/12 20:09:56;;;;;;;6.65;1.33;;;;;;;;;;5028135;28;20041;-82
2021/03/12 20:12:22;;;;;;;2.67;1.00;;;;;;;;;;5030882;28;20056;-83
2021/03/12 20:14:48;;;;;;;6.00;1.80;;;;;;;;;;5003051;28;20057;-82
2021/03/12 20:17:15;;;;;;;4.45;1.30;;;;;;;;;;5031427;28;20041;-83
2021/03/12 20:19:42;;;;;;;2.92;1.17;;;;;;;;;;5037233;28;20042;-84
2021/03/12 20:22:09;;;;;;;3.80;1.10;;;;;;;;;;5033976;28;20402;-83
2021/03/12 20:24:35;;;;;;;4.97;1.27;;;;;;;;;;5025495;28;20045;-83
2021/03/12 20:27:01;;;;;;;2.80;0.90;;;;;;;;;;5032060;28;20041;-83
2021/03/12 20:29:28;;;;;;;2.10;0.80;;;;;;;;;;5024012;28;20382;-82
2021/03/12 20:31:54;;;;;;;3.90;1.00;;;;;;;;;;5026241;28;20053;-84
2021/03/12 20:34:20;;;;;;;7.70;1.25;;;;;;;;;;5033634;28;20050;-84
2021/03/12 20:36:47;;;;;;;4.10;1.17;;;;;;;;;;5031429;28;20473;-82
2021/03/12 20:39:17;;;;;;;3.50;1.27;;;;;;;;;;5040931;28;20094;-82
2021/03/12 20:41:44;;;;;;;4.55;1.50;;;;;;;;;;5002371;28;20131;-82
2021/03/12 20:44:10;;;;;;;2.38;0.90;;;;;;;;;;5016617;28;20380;-82
2021/03/12 20:46:39;;;;;;;2.13;0.80;;;;;;;;;;5017633;28;20467;-83
2021/03/12 20:49:05;;;;;;;4.07;1.70;;;;;;;;;;5035402;28;20042;-83
2021/03/12 20:51:31;;;;;;;2.75;1.48;;;;;;;;;;5027967;28;20071;-82
2021/03/12 20:53:58;;;;;;;4.25;1.17;;;;;;;;;;5028912;28;20442;-83
2021/03/12 20:56:24;;;;;;;3.25;1.35;;;;;;;;;;5029688;28;20072;-82
2021/03/12 20:58:50;;;;;;;2.95;0.95;;;;;;;;;;5039453;28;20099;-84
2021/03/12 21:01:16;;;;;;;3.58;1.10;;;;;;;;;;5029222;28;20054;-83
2021/03/12 21:03:42;;;;;;;3.70;1.63;;;;;;;;;;5035443;28;20129;-85
2021/03/12 21:06:09;;;;;;;5.63;2.28;;;;;;;;;;5027578;28;20052;-85
2021/03/12 21:08:35;;;;;;;5.05;1.33;;;;;;;;;;5039998;28;20053;-84
2021/03/12 21:11:03;;;;;;;7.50;2.33;;;;;;;;;;5030254;28;20050;-83
2021/03/12 21:13:29;;;;;;;3.53;1.20;;;;;;;;;;5021208;28;20076;-83
2021/03/12 21:15:55;;;;;;;3.00;1.48;;;;;;;;;;5026597;28;20493;-83
2021/03/12 21:18:21;;;;;;;5.43;2.92;;;;;;;;;;5024750;28;20056;-82
2021/03/12 21:20:48;;;;;;;5.85;2.03;;;;;;;;;;5025783;28;20530;-84
2021/03/12 21:23:14;;;;;;;5.97;1.55;;;;;;;;;;5019200;28;20042;-83
2021/03/12 21:25:40;;;;;;;3.47;1.38;;;;;;;;;;5023470;28;20077;-83
2021/03/12 21:28:07;;;;;;;5.07;1.20;;;;;;;;;;5020368;28;20050;-83
2021/03/12 21:30:34;;;;;;;2.65;1.50;;;;;;;;;;5035019;28;20081;-82
2021/03/12 21:33:01;;;;;;;5.10;1.20;;;;;;;;;;5031137;28;20483;-81
2021/03/12 21:35:27;;;;;;;5.85;1.30;;;;;;;;;;4988610;28;20100;-82
2021/03/12 21:37:54;;;;;;;4.45;1.27;;;;;;;;;;5026196;28;20057;-81
2021/03/12 21:40:20;;;;;;;6.32;1.55;;;;;;;;;;5029638;28;20076;-82